sensor_id;sensor_type;location;lat;lon;timestamp;pressure;altitude;pressure_sealevel;temperature;humidity
49841;BME280;35738;49.890;5.930;2024-02-16T00:01:41;95458.28;;;8.50;85.65
49841;BME280;35738;49.890;5.930;2024-02-16T00:04:07;95458.28;;;8.50;85.00
49841;BME280;35738;49.890;5.930;2024-02-16T00:06:34;95460.66;;;8.52;84.30
49841;BME280;35738;49.890;5.930;2024-02-16T00:09:00;95455.38;;;8.52;84.95
49841;BME280;35738;49.890;5.930;2024-02-16T00:11:27;95446.22;;;8.49;84.58
49841;BME280;35738;49.890;5.930;2024-02-16T00:13:55;95443.06;;;8.47;84.10
49841;BME280;35738;49.890;5.930;2024-02-16T00:16:21;95447.78;;;8.50;85.34
49841;BME280;35738;49.890;5.930;2024-02-16T00:18:48;95435.69;;;8.49;84.76
49841;BME280;35738;49.890;5.930;2024-02-16T00:21:15;95441.72;;;8.50;85.34
49841;BME280;35738;49.890;5.930;2024-02-16T00:23:43;95441.50;;;8.46;84.79
49841;BME280;35738;49.890;5.930;2024-02-16T00:26:11;95441.50;;;8.46;83.53
49841;BME280;35738;49.890;5.930;2024-02-16T00:28:37;95435.75;;;8.44;84.70
49841;BME280;35738;49.890;5.930;2024-02-16T00:31:04;95435.47;;;8.46;85.27
49841;BME280;35738;49.890;5.930;2024-02-16T00:33:32;95437.31;;;8.45;85.53
49841;BME280;35738;49.890;5.930;2024-02-16T00:36:00;95434.69;;;8.45;85.03
49841;BME280;35738;49.890;5.930;2024-02-16T00:38:27;95433.09;;;8.44;83.74
49841;BME280;35738;49.890;5.930;2024-02-16T00:40:53;95435.75;;;8.44;84.12
49841;BME280;35738;49.890;5.930;2024-02-16T00:43:20;95434.69;;;8.45;83.90
49841;BME280;35738;49.890;5.930;2024-02-16T00:45:46;95424.72;;;8.42;84.42
49841;BME280;35738;49.890;5.930;2024-02-16T00:48:14;95415.28;;;8.36;85.67
49841;BME280;35738;49.890;5.930;2024-02-16T00:50:41;95427.91;;;8.34;84.86
49841;BME280;35738;49.890;5.930;2024-02-16T00:53:09;95424.22;;;8.35;84.70
49841;BME280;35738;49.890;5.930;2024-02-16T00:55:36;95422.13;;;8.37;85.42
49841;BME280;35738;49.890;5.930;2024-02-16T00:58:04;95428.41;;;8.36;85.23
49841;BME280;35738;49.890;5.930;2024-02-16T01:00:30;95425.78;;;8.36;86.23
49841;BME280;35738;49.890;5.930;2024-02-16T01:02:57;95425.28;;;8.39;85.15
49841;BME280;35738;49.890;5.930;2024-02-16T01:05:24;95435.22;;;8.42;85.13
49841;BME280;35738;49.890;5.930;2024-02-16T01:07:51;95435.78;;;8.39;85.06
49841;BME280;35738;49.890;5.930;2024-02-16T01:10:17;95429.47;;;8.35;85.01
49841;BME280;35738;49.890;5.930;2024-02-16T01:12:44;95423.44;;;8.35;84.74
49841;BME280;35738;49.890;5.930;2024-02-16T01:15:10;95417.66;;;8.33;84.92
49841;BME280;35738;49.890;5.930;2024-02-16T01:17:37;95424.25;;;8.30;86.33
49841;BME280;35738;49.890;5.930;2024-02-16T01:20:06;95422.41;;;8.31;85.00
49841;BME280;35738;49.890;5.930;2024-02-16T01:22:38;95423.19;;;8.31;86.09
49841;BME280;35738;49.890;5.930;2024-02-16T01:25:05;95430.53;;;8.34;86.25
49841;BME280;35738;49.890;5.930;2024-02-16T01:27:31;95421.59;;;8.35;85.51
49841;BME280;35738;49.890;5.930;2024-02-16T01:29:58;95415.78;;;8.33;86.09
49841;BME280;35738;49.890;5.930;2024-02-16T01:32:26;95415.00;;;8.33;84.93
49841;BME280;35738;49.890;5.930;2024-02-16T01:34:53;95411.09;;;8.30;86.41
49841;BME280;35738;49.890;5.930;2024-02-16T01:37:19;95413.72;;;8.30;85.79
49841;BME280;35738;49.890;5.930;2024-02-16T01:39:46;95413.72;;;8.30;84.63
49841;BME280;35738;49.890;5.930;2024-02-16T01:42:12;95416.88;;;8.32;86.18
49841;BME280;35738;49.890;5.930;2024-02-16T01:44:39;95429.00;;;8.28;85.67
49841;BME280;35738;49.890;5.930;2024-02-16T01:47:05;95428.75;;;8.25;84.89
49841;BME280;35738;49.890;5.930;2024-02-16T01:49:33;95426.41;;;8.23;86.26
49841;BME280;35738;49.890;5.930;2024-02-16T01:52:00;95427.47;;;8.22;85.77
49841;BME280;35738;49.890;5.930;2024-02-16T01:54:27;95427.19;;;8.24;86.08
49841;BME280;35738;49.890;5.930;2024-02-16T01:56:54;95424.84;;;8.22;85.89
49841;BME280;35738;49.890;5.930;2024-02-16T01:59:21;95423.28;;;8.21;85.35
49841;BME280;35738;49.890;5.930;2024-02-16T02:01:48;95434.28;;;8.23;86.11
49841;BME280;35738;49.890;5.930;2024-02-16T02:04:15;95440.63;;;8.22;85.67
49841;BME280;35738;49.890;5.930;2024-02-16T02:06:42;95439.03;;;8.21;85.57
49841;BME280;35738;49.890;5.930;2024-02-16T02:09:09;95442.72;;;8.20;86.31
49841;BME280;35738;49.890;5.930;2024-02-16T02:11:36;95438.25;;;8.20;85.53
49841;BME280;35738;49.890;5.930;2024-02-16T02:14:04;95442.72;;;8.20;86.61
49841;BME280;35738;49.890;5.930;2024-02-16T02:16:30;95441.16;;;8.19;84.95
49841;BME280;35738;49.890;5.930;2024-02-16T02:19:10;95435.91;;;8.19;85.28
49841;BME280;35738;49.890;5.930;2024-02-16T02:21:36;95433.78;;;8.21;85.55
49841;BME280;35738;49.890;5.930;2024-02-16T02:24:03;95431.44;;;8.19;86.25
49841;BME280;35738;49.890;5.930;2024-02-16T02:26:30;95435.91;;;8.19;86.67
49841;BME280;35738;49.890;5.930;2024-02-16T02:28:56;95431.69;;;8.18;84.96
49841;BME280;35738;49.890;5.930;2024-02-16T02:31:23;95420.16;;;8.14;85.38
49841;BME280;35738;49.890;5.930;2024-02-16T02:33:49;95415.41;;;8.16;85.12
49841;BME280;35738;49.890;5.930;2024-02-16T02:36:16;95413.28;;;8.18;84.89
49841;BME280;35738;49.890;5.930;2024-02-16T02:38:43;95418.53;;;8.18;85.68
49841;BME280;35738;49.890;5.930;2024-02-16T02:41:10;95407.00;;;8.14;85.81
49841;BME280;35738;49.890;5.930;2024-02-16T02:43:37;95405.44;;;8.13;85.47
49841;BME280;35738;49.890;5.930;2024-02-16T02:46:04;95406.22;;;8.13;84.49
49841;BME280;35738;49.890;5.930;2024-02-16T02:48:30;95398.63;;;8.12;85.84
49841;BME280;35738;49.890;5.930;2024-02-16T02:50:57;95402.06;;;8.07;85.13
49841;BME280;35738;49.890;5.930;2024-02-16T02:53:28;95408.66;;;8.05;85.17
49841;BME280;35738;49.890;5.930;2024-02-16T02:55:54;95400.78;;;8.05;86.54
49841;BME280;35738;49.890;5.930;2024-02-16T02:58:21;95401.84;;;8.04;86.24
49841;BME280;35738;49.890;5.930;2024-02-16T03:00:47;95402.41;;;8.01;86.33
49841;BME280;35738;49.890;5.930;2024-02-16T03:03:14;95406.88;;;8.00;86.04
49841;BME280;35738;49.890;5.930;2024-02-16T03:05:42;95396.88;;;8.02;85.87
49841;BME280;35738;49.890;5.930;2024-02-16T03:08:09;95391.34;;;8.04;85.90
49841;BME280;35738;49.890;5.930;2024-02-16T03:10:37;95392.38;;;8.03;86.10
49841;BME280;35738;49.890;5.930;2024-02-16T03:13:05;95403.69;;;8.03;85.57
49841;BME280;35738;49.890;5.930;2024-02-16T03:15:33;95399.75;;;8.01;85.86
49841;BME280;35738;49.890;5.930;2024-02-16T03:18:02;95400.81;;;8.00;85.86
49841;BME280;35738;49.890;5.930;2024-02-16T03:20:29;95399.22;;;7.99;84.52
49841;BME280;35738;49.890;5.930;2024-02-16T03:22:56;95401.34;;;7.97;84.51
49841;BME280;35738;49.890;5.930;2024-02-16T03:25:23;95396.63;;;7.94;85.14
49841;BME280;35738;49.890;5.930;2024-02-16T03:27:50;95400.88;;;7.89;86.76
49841;BME280;35738;49.890;5.930;2024-02-16T03:30:17;95396.94;;;7.87;85.30
49841;BME280;35738;49.890;5.930;2024-02-16T03:32:48;95398.28;;;7.84;85.59
49841;BME280;35738;49.890;5.930;2024-02-16T03:35:15;95396.94;;;7.87;86.26
49841;BME280;35738;49.890;5.930;2024-02-16T03:37:41;95405.09;;;7.85;85.29
49841;BME280;35738;49.890;5.930;2024-02-16T03:40:08;95412.47;;;7.83;85.29
49841;BME280;35738;49.890;5.930;2024-02-16T03:42:36;95415.63;;;7.80;84.90
49841;BME280;35738;49.890;5.930;2024-02-16T03:45:03;95409.88;;;7.78;86.27
49841;BME280;35738;49.890;5.930;2024-02-16T03:47:29;95400.13;;;7.79;85.95
49841;BME280;35738;49.890;5.930;2024-02-16T03:49:56;95405.66;;;7.82;85.56
49841;BME280;35738;49.890;5.930;2024-02-16T03:52:22;95401.47;;;7.81;85.90
49841;BME280;35738;49.890;5.930;2024-02-16T03:54:50;95398.84;;;7.81;86.28
49841;BME280;35738;49.890;5.930;2024-02-16T03:57:16;95403.53;;;7.84;86.02
49841;BME280;35738;49.890;5.930;2024-02-16T03:59:43;95409.81;;;7.88;84.42
49841;BME280;35738;49.890;5.930;2024-02-16T04:02:10;95412.44;;;7.88;85.08
49841;BME280;35738;49.890;5.930;2024-02-16T04:04:37;95411.94;;;7.86;84.17
49841;BME280;35738;49.890;5.930;2024-02-16T04:07:03;95406.44;;;7.83;85.42
49841;BME280;35738;49.890;5.930;2024-02-16T04:09:30;95407.22;;;7.83;84.77
49841;BME280;35738;49.890;5.930;2024-02-16T04:11:57;95413.81;;;7.81;85.12
49841;BME280;35738;49.890;5.930;2024-02-16T04:14:23;95421.16;;;7.84;84.21
49841;BME280;35738;49.890;5.930;2024-02-16T04:16:50;95414.59;;;7.81;84.80
49841;BME280;35738;49.890;5.930;2024-02-16T04:19:16;95417.75;;;7.83;84.14
49841;BME280;35738;49.890;5.930;2024-02-16T04:21:43;95433.50;;;7.83;83.84
49841;BME280;35738;49.890;5.930;2024-02-16T04:24:09;95413.50;;;7.87;84.03
49841;BME280;35738;49.890;5.930;2024-02-16T04:26:36;95419.78;;;7.92;84.37
49841;BME280;35738;49.890;5.930;2024-02-16T04:29:03;95425.56;;;7.88;83.61
49841;BME280;35738;49.890;5.930;2024-02-16T04:31:30;95422.44;;;7.86;83.78
49841;BME280;35738;49.890;5.930;2024-02-16T04:33:57;95429.81;;;7.84;83.09
49841;BME280;35738;49.890;5.930;2024-02-16T04:36:24;95421.66;;;7.86;83.62
49841;BME280;35738;49.890;5.930;2024-02-16T04:38:50;95419.81;;;7.86;82.90
49841;BME280;35738;49.890;5.930;2024-02-16T04:41:20;95424.78;;;7.88;83.93
49841;BME280;35738;49.890;5.930;2024-02-16T04:43:46;95418.22;;;7.90;84.07
49841;BME280;35738;49.890;5.930;2024-02-16T04:46:16;95424.47;;;7.95;83.18
49841;BME280;35738;49.890;5.930;2024-02-16T04:48:42;95424.53;;;7.89;84.41
49841;BME280;35738;49.890;5.930;2024-02-16T04:51:13;95431.63;;;7.89;84.31
49841;BME280;35738;49.890;5.930;2024-02-16T04:53:39;95425.81;;;7.92;83.11
49841;BME280;35738;49.890;5.930;2024-02-16T04:56:06;95439.22;;;7.90;83.32
49841;BME280;35738;49.890;5.930;2024-02-16T04:58:32;95439.00;;;7.87;83.46
49841;BME280;35738;49.890;5.930;2024-02-16T05:00:59;95433.44;;;7.94;83.46
49841;BME280;35738;49.890;5.930;2024-02-16T05:03:26;95430.25;;;7.97;82.93
49841;BME280;35738;49.890;5.930;2024-02-16T05:05:52;95428.41;;;7.97;82.77
49841;BME280;35738;49.890;5.930;2024-02-16T05:08:22;95436.00;;;7.99;83.71
49841;BME280;35738;49.890;5.930;2024-02-16T05:10:48;95434.97;;;8.00;82.75
49841;BME280;35738;49.890;5.930;2024-02-16T05:13:14;95438.63;;;7.99;82.90
49841;BME280;35738;49.890;5.930;2024-02-16T05:15:41;95440.75;;;7.97;82.80
49841;BME280;35738;49.890;5.930;2024-02-16T05:18:08;95436.84;;;7.94;83.53
49841;BME280;35738;49.890;5.930;2024-02-16T05:20:35;95445.53;;;7.89;84.11
49841;BME280;35738;49.890;5.930;2024-02-16T05:23:02;95441.38;;;7.83;83.87
49841;BME280;35738;49.890;5.930;2024-02-16T05:25:28;95449.00;;;7.80;82.59
49841;BME280;35738;49.890;5.930;2024-02-16T05:27:55;95449.78;;;7.80;83.40
49841;BME280;35738;49.890;5.930;2024-02-16T05:30:21;95445.59;;;7.79;84.63
49841;BME280;35738;49.890;5.930;2024-02-16T05:32:48;95446.63;;;7.78;82.78
49841;BME280;35738;49.890;5.930;2024-02-16T05:35:15;95453.22;;;7.76;83.56
49841;BME280;35738;49.890;5.930;2024-02-16T05:37:48;95451.41;;;7.71;83.08
49841;BME280;35738;49.890;5.930;2024-02-16T05:40:18;95445.09;;;7.72;84.80
49841;BME280;35738;49.890;5.930;2024-02-16T05:42:53;95447.25;;;7.65;83.71
49841;BME280;35738;49.890;5.930;2024-02-16T05:45:20;95449.88;;;7.60;84.62
49841;BME280;35738;49.890;5.930;2024-02-16T05:47:50;95447.53;;;7.58;85.27
49841;BME280;35738;49.890;5.930;2024-02-16T05:50:17;95444.63;;;7.60;83.71
49841;BME280;35738;49.890;5.930;2024-02-16T05:52:44;95446.75;;;7.58;85.00
49841;BME280;35738;49.890;5.930;2024-02-16T05:55:11;95452.50;;;7.60;84.47
49841;BME280;35738;49.890;5.930;2024-02-16T05:57:38;95453.56;;;7.59;85.55
49841;BME280;35738;49.890;5.930;2024-02-16T06:00:06;95446.19;;;7.61;84.07
49841;BME280;35738;49.890;5.930;2024-02-16T06:02:33;95454.34;;;7.59;85.76
49841;BME280;35738;49.890;5.930;2024-02-16T06:05:01;95455.66;;;7.57;85.80
49841;BME280;35738;49.890;5.930;2024-02-16T06:07:31;95453.56;;;7.59;85.61
49841;BME280;35738;49.890;5.930;2024-02-16T06:09:58;95456.19;;;7.59;83.81
49841;BME280;35738;49.890;5.930;2024-02-16T06:12:25;95455.13;;;7.60;83.80
49841;BME280;35738;49.890;5.930;2024-02-16T06:14:52;95469.31;;;7.59;84.86
49841;BME280;35738;49.890;5.930;2024-02-16T06:17:20;95473.00;;;7.58;84.25
49841;BME280;35738;49.890;5.930;2024-02-16T06:19:46;95479.31;;;7.57;85.57
49841;BME280;35738;49.890;5.930;2024-02-16T06:22:14;95476.69;;;7.57;84.97
49841;BME280;35738;49.890;5.930;2024-02-16T06:24:41;95478.25;;;7.58;85.36
49841;BME280;35738;49.890;5.930;2024-02-16T06:27:07;95487.69;;;7.59;85.46
49841;BME280;35738;49.890;5.930;2024-02-16T06:29:37;95489.28;;;7.60;84.99
49841;BME280;35738;49.890;5.930;2024-02-16T06:32:03;95492.94;;;7.59;84.68
49841;BME280;35738;49.890;5.930;2024-02-16T06:34:30;95488.75;;;7.58;84.90
49841;BME280;35738;49.890;5.930;2024-02-16T06:36:57;95497.16;;;7.60;85.79
49841;BME280;35738;49.890;5.930;2024-02-16T06:39:24;95502.41;;;7.60;85.16
49841;BME280;35738;49.890;5.930;2024-02-16T06:41:51;95510.28;;;7.60;85.08
49841;BME280;35738;49.890;5.930;2024-02-16T06:44:17;95505.03;;;7.60;85.31
49841;BME280;35738;49.890;5.930;2024-02-16T06:46:48;95508.16;;;7.62;85.81
49841;BME280;35738;49.890;5.930;2024-02-16T06:49:15;95512.63;;;7.62;84.51
49841;BME280;35738;49.890;5.930;2024-02-16T06:51:42;95503.72;;;7.63;84.72
49841;BME280;35738;49.890;5.930;2024-02-16T06:54:11;95502.41;;;7.65;84.81
49841;BME280;35738;49.890;5.930;2024-02-16T06:56:38;95497.41;;;7.64;84.29
49841;BME280;35738;49.890;5.930;2024-02-16T06:59:04;95513.41;;;7.67;84.79
49841;BME280;35738;49.890;5.930;2024-02-16T07:01:31;95506.06;;;7.69;85.02
49841;BME280;35738;49.890;5.930;2024-02-16T07:03:58;95514.72;;;7.70;85.62
49841;BME280;35738;49.890;5.930;2024-02-16T07:06:24;95518.13;;;7.70;84.66
49841;BME280;35738;49.890;5.930;2024-02-16T07:08:52;95514.69;;;7.75;84.35
49841;BME280;35738;49.890;5.930;2024-02-16T07:11:19;95530.19;;;7.81;84.60
49841;BME280;35738;49.890;5.930;2024-02-16T07:13:47;95530.19;;;7.81;83.83
49841;BME280;35738;49.890;5.930;2024-02-16T07:16:14;95532.28;;;7.84;83.21
49841;BME280;35738;49.890;5.930;2024-02-16T07:18:41;95538.03;;;7.86;83.59
49841;BME280;35738;49.890;5.930;2024-02-16T07:21:09;95544.31;;;7.90;83.42
49841;BME280;35738;49.890;5.930;2024-02-16T07:23:36;95545.91;;;7.92;83.23
49841;BME280;35738;49.890;5.930;2024-02-16T07:26:02;95549.03;;;7.94;84.45
49841;BME280;35738;49.890;5.930;2024-02-16T07:28:33;95543.00;;;7.93;83.04
49841;BME280;35738;49.890;5.930;2024-02-16T07:30:59;95552.19;;;7.96;83.88
49841;BME280;35738;49.890;5.930;2024-02-16T07:33:26;95554.53;;;7.97;84.37
49841;BME280;35738;49.890;5.930;2024-02-16T07:35:55;95550.84;;;7.98;83.20
49841;BME280;35738;49.890;5.930;2024-02-16T07:38:21;95562.13;;;7.99;83.27
49841;BME280;35738;49.890;5.930;2024-02-16T07:40:48;95561.91;;;8.00;83.15
49841;BME280;35738;49.890;5.930;2024-02-16T07:43:17;95564.53;;;8.00;84.35
49841;BME280;35738;49.890;5.930;2024-02-16T07:45:44;95563.19;;;8.03;83.46
49841;BME280;35738;49.890;5.930;2024-02-16T07:48:11;95561.09;;;8.05;83.83
49841;BME280;35738;49.890;5.930;2024-02-16T07:50:37;95563.16;;;8.08;83.33
49841;BME280;35738;49.890;5.930;2024-02-16T07:53:04;95567.34;;;8.14;82.50
49841;BME280;35738;49.890;5.930;2024-02-16T07:55:33;95570.19;;;8.17;84.09
49841;BME280;35738;49.890;5.930;2024-02-16T07:58:00;95571.81;;;8.18;84.11
49841;BME280;35738;49.890;5.930;2024-02-16T08:00:26;95573.63;;;8.23;82.79
49841;BME280;35738;49.890;5.930;2024-02-16T08:02:54;95576.22;;;8.28;82.71
49841;BME280;35738;49.890;5.930;2024-02-16T08:05:21;95580.41;;;8.34;83.06
49841;BME280;35738;49.890;5.930;2024-02-16T08:07:48;95593.00;;;8.42;82.54
49841;BME280;35738;49.890;5.930;2024-02-16T08:10:19;95581.66;;;8.47;82.54
49841;BME280;35738;49.890;5.930;2024-02-16T08:12:47;95591.38;;;8.52;82.36
49841;BME280;35738;49.890;5.930;2024-02-16T08:15:13;95588.72;;;8.57;82.67
49841;BME280;35738;49.890;5.930;2024-02-16T08:17:41;95600.78;;;8.63;82.96
49841;BME280;35738;49.890;5.930;2024-02-16T08:20:08;95598.09;;;8.68;83.21
49841;BME280;35738;49.890;5.930;2024-02-16T08:22:38;95601.75;;;8.72;82.26
49841;BME280;35738;49.890;5.930;2024-02-16T08:25:04;95608.06;;;8.76;83.00
49841;BME280;35738;49.890;5.930;2024-02-16T08:27:32;95611.22;;;8.78;81.25
49841;BME280;35738;49.890;5.930;2024-02-16T08:29:59;95612.78;;;8.79;81.56
49841;BME280;35738;49.890;5.930;2024-02-16T08:32:25;95605.41;;;8.81;81.35
49841;BME280;35738;49.890;5.930;2024-02-16T08:34:52;95610.91;;;8.85;82.30
49841;BME280;35738;49.890;5.930;2024-02-16T08:37:19;95613.75;;;8.88;81.22
49841;BME280;35738;49.890;5.930;2024-02-16T08:39:45;95615.84;;;8.91;82.28
49841;BME280;35738;49.890;5.930;2024-02-16T08:42:12;95619.78;;;8.94;81.74
49841;BME280;35738;49.890;5.930;2024-02-16T08:44:39;95624.50;;;8.97;82.11
49841;BME280;35738;49.890;5.930;2024-02-16T08:47:07;95622.63;;;9.02;81.86
49841;BME280;35738;49.890;5.930;2024-02-16T08:49:34;95617.81;;;9.09;82.24
49841;BME280;35738;49.890;5.930;2024-02-16T08:52:01;95615.72;;;9.12;81.87
49841;BME280;35738;49.890;5.930;2024-02-16T08:54:28;95620.44;;;9.15;82.54
49841;BME280;35738;49.890;5.930;2024-02-16T08:56:55;95628.28;;;9.20;81.68
49841;BME280;35738;49.890;5.930;2024-02-16T08:59:21;95639.81;;;9.24;82.32
49841;BME280;35738;49.890;5.930;2024-02-16T09:01:48;95641.94;;;9.22;81.50
49841;BME280;35738;49.890;5.930;2024-02-16T09:04:14;95643.28;;;9.19;81.57
49841;BME280;35738;49.890;5.930;2024-02-16T09:06:42;95646.75;;;9.15;82.21
49841;BME280;35738;49.890;5.930;2024-02-16T09:09:08;95647.31;;;9.12;82.69
49841;BME280;35738;49.890;5.930;2024-02-16T09:11:35;95645.47;;;9.12;82.66
49841;BME280;35738;49.890;5.930;2024-02-16T09:14:02;95649.41;;;9.09;82.61
49841;BME280;35738;49.890;5.930;2024-02-16T09:16:28;95660.47;;;9.06;82.99
49841;BME280;35738;49.890;5.930;2024-02-16T09:18:55;95668.44;;;9.01;82.53
49841;BME280;35738;49.890;5.930;2024-02-16T09:21:22;95667.63;;;9.01;83.16
49841;BME280;35738;49.890;5.930;2024-02-16T09:23:50;95665.00;;;9.01;83.46
49841;BME280;35738;49.890;5.930;2024-02-16T09:26:17;95660.81;;;9.00;83.07
49841;BME280;35738;49.890;5.930;2024-02-16T09:28:43;95666.84;;;9.00;83.28
49841;BME280;35738;49.890;5.930;2024-02-16T09:31:14;95664.50;;;8.99;83.58
49841;BME280;35738;49.890;5.930;2024-02-16T09:33:41;95675.81;;;8.99;83.40
49841;BME280;35738;49.890;5.930;2024-02-16T09:36:08;95671.56;;;9.03;83.19
49841;BME280;35738;49.890;5.930;2024-02-16T09:38:34;95678.41;;;9.04;84.38
49841;BME280;35738;49.890;5.930;2024-02-16T09:41:01;95674.72;;;9.05;83.84
49841;BME280;35738;49.890;5.930;2024-02-16T09:43:29;95675.72;;;9.09;84.94
49841;BME280;35738;49.890;5.930;2024-02-16T09:45:57;95686.53;;;9.13;84.98
49841;BME280;35738;49.890;5.930;2024-02-16T09:48:25;95691.25;;;9.16;85.08
49841;BME280;35738;49.890;5.930;2024-02-16T09:50:55;95689.91;;;9.19;84.56
49841;BME280;35738;49.890;5.930;2024-02-16T09:53:27;95696.19;;;9.23;84.97
49841;BME280;35738;49.890;5.930;2024-02-16T09:55:54;95696.19;;;9.23;85.53
49841;BME280;35738;49.890;5.930;2024-02-16T09:58:21;95703.53;;;9.26;85.07
49841;BME280;35738;49.890;5.930;2024-02-16T10:00:51;95709.59;;;9.26;85.11
49841;BME280;35738;49.890;5.930;2024-02-16T10:03:27;95704.03;;;9.28;84.99
49841;BME280;35738;49.890;5.930;2024-02-16T10:06:07;95698.25;;;9.31;84.63
49841;BME280;35738;49.890;5.930;2024-02-16T10:08:55;95708.19;;;9.39;84.67
49841;BME280;35738;49.890;5.930;2024-02-16T10:11:25;95705.22;;;9.46;84.86
49841;BME280;35738;49.890;5.930;2024-02-16T10:13:58;95706.50;;;9.53;85.76
49841;BME280;35738;49.890;5.930;2024-02-16T10:16:25;95713.81;;;9.61;84.74
49841;BME280;35738;49.890;5.930;2024-02-16T10:19:04;95711.13;;;9.66;84.87
49841;BME280;35738;49.890;5.930;2024-02-16T10:21:31;95710.53;;;9.75;85.32
49841;BME280;35738;49.890;5.930;2024-02-16T10:24:21;95715.22;;;9.83;85.13
49841;BME280;35738;49.890;5.930;2024-02-16T10:26:48;95722.59;;;9.86;85.06
49841;BME280;35738;49.890;5.930;2024-02-16T10:29:17;95718.84;;;9.92;84.92
49841;BME280;35738;49.890;5.930;2024-02-16T10:31:46;95723.03;;;9.93;85.44
49841;BME280;35738;49.890;5.930;2024-02-16T10:34:13;95720.34;;;9.98;85.53
49841;BME280;35738;49.890;5.930;2024-02-16T10:36:40;95725.56;;;10.03;85.46
49841;BME280;35738;49.890;5.930;2024-02-16T10:39:08;95728.47;;;10.01;85.98
49841;BME280;35738;49.890;5.930;2024-02-16T10:41:40;95730.84;;;10.03;86.20
49841;BME280;35738;49.890;5.930;2024-02-16T10:44:07;95736.66;;;10.05;85.66
49841;BME280;35738;49.890;5.930;2024-02-16T10:46:34;95744.03;;;10.03;86.41
49841;BME280;35738;49.890;5.930;2024-02-16T10:49:01;95749.81;;;10.05;86.27
49841;BME280;35738;49.890;5.930;2024-02-16T10:51:47;95748.25;;;10.04;86.39
49841;BME280;35738;49.890;5.930;2024-02-16T10:54:17;95752.97;;;10.07;86.74
49841;BME280;35738;49.890;5.930;2024-02-16T10:56:46;95743.00;;;10.04;86.71
49841;BME280;35738;49.890;5.930;2024-02-16T10:59:12;95747.72;;;10.02;87.05
49841;BME280;35738;49.890;5.930;2024-02-16T11:01:41;95748.25;;;10.04;87.32
49841;BME280;35738;49.890;5.930;2024-02-16T11:04:11;95752.19;;;10.07;87.33
49841;BME280;35738;49.890;5.930;2024-02-16T11:06:57;95749.81;;;10.05;87.43
49841;BME280;35738;49.890;5.930;2024-02-16T11:09:33;95755.31;;;10.09;88.01
49841;BME280;35738;49.890;5.930;2024-02-16T11:12:04;95758.75;;;10.09;87.96
49841;BME280;35738;49.890;5.930;2024-02-16T11:14:56;95756.13;;;10.09;87.88
49841;BME280;35738;49.890;5.930;2024-02-16T11:17:23;95751.63;;;10.10;87.56
49841;BME280;35738;49.890;5.930;2024-02-16T11:19:53;95744.00;;;10.08;88.81
49841;BME280;35738;49.890;5.930;2024-02-16T11:22:22;95762.75;;;10.01;88.52
49841;BME280;35738;49.890;5.930;2024-02-16T11:24:53;95764.16;;;9.94;88.72
49841;BME280;35738;49.890;5.930;2024-02-16T11:27:24;95765.44;;;9.96;89.07
49841;BME280;35738;49.890;5.930;2024-02-16T11:29:52;95763.66;;;9.92;89.12
49841;BME280;35738;49.890;5.930;2024-02-16T11:32:19;95766.84;;;9.89;89.77
49841;BME280;35738;49.890;5.930;2024-02-16T11:34:46;95766.84;;;9.89;89.68
49841;BME280;35738;49.890;5.930;2024-02-16T11:37:14;95765.78;;;9.85;90.32
49841;BME280;35738;49.890;5.930;2024-02-16T11:39:41;95765.78;;;9.85;90.32
49841;BME280;35738;49.890;5.930;2024-02-16T11:42:12;95768.44;;;9.85;90.77
49841;BME280;35738;49.890;5.930;2024-02-16T11:44:49;95771.06;;;9.85;89.78
49841;BME280;35738;49.890;5.930;2024-02-16T11:47:19;95765.78;;;9.85;91.09
49841;BME280;35738;49.890;5.930;2024-02-16T11:49:46;95778.97;;;9.85;90.64
49841;BME280;35738;49.890;5.930;2024-02-16T11:52:13;95766.34;;;9.82;91.12
49841;BME280;35738;49.890;5.930;2024-02-16T11:54:44;95768.44;;;9.85;90.97
49841;BME280;35738;49.890;5.930;2024-02-16T11:57:10;95782.44;;;9.80;90.99
49841;BME280;35738;49.890;5.930;2024-02-16T11:59:37;95781.09;;;9.83;91.52
49841;BME280;35738;49.890;5.930;2024-02-16T12:02:03;95772.41;;;9.82;91.68
49841;BME280;35738;49.890;5.930;2024-02-16T12:04:30;95781.66;;;9.80;91.79
49841;BME280;35738;49.890;5.930;2024-02-16T12:06:58;95770.28;;;9.84;91.70
49841;BME280;35738;49.890;5.930;2024-02-16T12:09:30;95790.06;;;9.87;91.59
49841;BME280;35738;49.890;5.930;2024-02-16T12:12:01;95781.59;;;9.85;92.04
49841;BME280;35738;49.890;5.930;2024-02-16T12:14:28;95790.06;;;9.87;92.21
49841;BME280;35738;49.890;5.930;2024-02-16T12:16:56;95790.06;;;9.87;92.37
49841;BME280;35738;49.890;5.930;2024-02-16T12:19:22;95789.50;;;9.85;92.24
49841;BME280;35738;49.890;5.930;2024-02-16T12:21:53;95791.38;;;9.84;92.17
49841;BME280;35738;49.890;5.930;2024-02-16T12:24:22;95787.66;;;9.85;91.79
49841;BME280;35738;49.890;5.930;2024-02-16T12:26:49;95790.06;;;9.87;92.17
49841;BME280;35738;49.890;5.930;2024-02-16T12:29:16;95786.88;;;9.85;92.68
49841;BME280;35738;49.890;5.930;2024-02-16T12:31:44;95787.72;;;9.80;92.26
49841;BME280;35738;49.890;5.930;2024-02-16T12:34:11;95797.97;;;9.82;92.19
49841;BME280;35738;49.890;5.930;2024-02-16T12:36:40;95786.66;;;9.81;92.51
49841;BME280;35738;49.890;5.930;2024-02-16T12:39:09;95787.44;;;9.82;92.90
49841;BME280;35738;49.890;5.930;2024-02-16T12:41:39;95797.19;;;9.81;93.55
49841;BME280;35738;49.890;5.930;2024-02-16T12:44:07;95800.09;;;9.80;92.51
49841;BME280;35738;49.890;5.930;2024-02-16T12:46:34;95795.34;;;9.82;93.34
49841;BME280;35738;49.890;5.930;2024-02-16T12:49:01;95785.88;;;9.81;93.04
49841;BME280;35738;49.890;5.930;2024-02-16T12:51:28;95796.41;;;9.81;93.29
49841;BME280;35738;49.890;5.930;2024-02-16T12:53:54;95798.53;;;9.79;93.26
49841;BME280;35738;49.890;5.930;2024-02-16T12:56:21;95803.81;;;9.79;93.13
49841;BME280;35738;49.890;5.930;2024-02-16T12:58:48;95807.22;;;9.79;93.88
49841;BME280;35738;49.890;5.930;2024-02-16T13:01:14;95808.56;;;9.77;93.49
49841;BME280;35738;49.890;5.930;2024-02-16T13:03:51;95813.31;;;9.75;93.49
49841;BME280;35738;49.890;5.930;2024-02-16T13:06:18;95812.25;;;9.76;93.10
49841;BME280;35738;49.890;5.930;2024-02-16T13:08:49;95818.59;;;9.75;93.53
49841;BME280;35738;49.890;5.930;2024-02-16T13:11:16;95814.38;;;9.74;93.70
49841;BME280;35738;49.890;5.930;2024-02-16T13:13:43;95819.66;;;9.74;94.10